Time;durP1;ratioP1;P1;durP2;ratioP2;P2;SDS_P1;SDS_P2;PMS_P1;PMS_P2;Temp;Humidity;BMP_temperature;BMP_pressure;BME280_temperature;BME280_humidity;BME280_pressure;Samples;Min_cycle;Max_cycle;Signal;HPM_P1;HPM_P2
2020/12/23 00:02:07;;;;;;;6.32;2.58;;;;;;;5.75;82.38;100360.28;5053459;28;20064;-79
2020/12/23 00:04:34;;;;;;;5.68;1.98;;;;;;;5.72;82.78;100359.00;5018478;28;20515;-80
2020/12/23 00:07:00;;;;;;;10.63;2.55;;;;;;;5.70;82.87;100350.28;5046118;28;20095;-81
2020/12/23 00:09:27;;;;;;;7.00;1.73;;;;;;;5.69;82.97;100353.34;5038531;28;20048;-79
2020/12/23 00:11:54;;;;;;;10.48;2.25;;;;;;;5.69;82.96;100350.59;5056761;28;20124;-78
2020/12/23 00:14:25;;;;;;;8.98;2.25;;;;;;;5.65;83.05;100355.09;5056309;28;20116;-77
2020/12/23 00:16:59;;;;;;;10.73;2.53;;;;;;;5.65;82.97;100347.69;5056103;28;20523;-78
2020/12/23 00:19:25;;;;;;;7.90;2.70;;;;;;;5.64;83.20;100337.03;5055626;28;20079;-79
2020/12/23 00:21:51;;;;;;;9.82;2.85;;;;;;;5.60;83.55;100325.06;5056489;28;20116;-79
2020/12/23 00:24:18;;;;;;;7.78;2.92;;;;;;;5.59;83.46;100339.94;5056419;28;20174;-79
2020/12/23 00:26:44;;;;;;;12.27;3.40;;;;;;;5.59;83.40;100335.22;5056366;28;20096;-79
2020/12/23 00:29:12;;;;;;;9.45;1.95;;;;;;;5.56;83.63;100324.09;5055301;28;20037;-79
2020/12/23 00:31:39;;;;;;;10.93;2.25;;;;;;;5.53;83.77;100315.34;5056188;28;20398;-78
2020/12/23 00:34:05;;;;;;;7.00;1.38;;;;;;;5.48;83.98;100315.53;5055980;28;20045;-79
2020/12/23 00:36:32;;;;;;;3.42;0.93;;;;;;;5.44;84.04;100306.31;5056054;28;20124;-79
2020/12/23 00:38:58;;;;;;;3.50;0.90;;;;;;;5.41;83.79;100300.66;5055867;28;20045;-79
2020/12/23 00:41:24;;;;;;;8.88;2.58;;;;;;;5.39;84.10;100301.00;5054804;28;20448;-79
2020/12/23 00:43:51;;;;;;;9.50;1.55;;;;;;;5.39;84.25;100306.47;5055181;28;20029;-79
2020/12/23 00:46:17;;;;;;;6.00;1.45;;;;;;;5.37;83.97;100311.50;5055452;28;20061;-78
2020/12/23 00:48:44;;;;;;;10.90;1.30;;;;;;;5.36;83.59;100304.38;5054989;28;20116;-78
2020/12/23 00:51:15;;;;;;;3.78;1.35;;;;;;;5.37;83.80;100316.16;5037374;28;20041;-80
2020/12/23 00:53:42;;;;;;;6.85;1.17;;;;;;;5.37;84.09;100305.19;5036515;28;20598;-79
2020/12/23 00:56:12;;;;;;;4.63;1.25;;;;;;;5.36;83.92;100309.88;5055469;28;20071;-79
2020/12/23 00:58:38;;;;;;;5.25;1.40;;;;;;;5.38;83.89;100334.25;5055658;28;20103;-79
2020/12/23 01:01:05;;;;;;;5.03;1.30;;;;;;;5.37;84.04;100330.72;5055009;28;20045;-79
2020/12/23 01:03:43;;;;;;;7.70;1.73;;;;;;;5.38;84.03;100332.31;5053972;28;20452;-79
2020/12/23 01:06:10;;;;;;;6.75;1.30;;;;;;;5.37;83.93;100322.47;5054713;28;20060;-79
2020/12/23 01:08:38;;;;;;;11.57;1.83;;;;;;;5.38;83.70;100324.06;5055491;28;20153;-79
2020/12/23 01:11:09;;;;;;;6.32;0.90;;;;;;;5.36;83.45;100317.28;5054025;28;20452;-80
2020/12/23 01:13:36;;;;;;;7.68;1.00;;;;;;;5.33;83.33;100310.50;5037157;28;20378;-79
2020/12/23 01:16:03;;;;;;;1.92;0.68;;;;;;;5.31;83.23;100306.47;5055310;28;20045;-80
2020/12/23 01:18:30;;;;;;;2.35;1.10;;;;;;;5.30;83.35;100319.38;5037761;28;20076;-79
2020/12/23 01:20:56;;;;;;;7.30;0.80;;;;;;;5.30;83.26;100305.66;5053537;28;20469;-79
2020/12/23 01:23:23;;;;;;;3.20;0.82;;;;;;;5.29;82.91;100309.53;5054366;28;20041;-80
2020/12/23 01:25:53;;;;;;;5.35;1.08;;;;;;;5.28;83.03;100310.66;5054185;28;20131;-78
2020/12/23 01:28:21;;;;;;;8.32;1.13;;;;;;;5.28;83.50;100313.41;5054896;28;20091;-78
2020/12/23 01:30:47;;;;;;;4.43;1.38;;;;;;;5.29;83.54;100308.72;5054354;28;20064;-79
2020/12/23 01:33:14;;;;;;;6.65;1.27;;;;;;;5.29;83.71;100308.72;5053821;28;20060;-79
2020/12/23 01:35:41;;;;;;;5.20;1.75;;;;;;;5.29;83.97;100315.03;5054503;28;20124;-79
2020/12/23 01:38:07;;;;;;;5.57;1.00;;;;;;;5.29;83.98;100315.03;5036306;28;20450;-79
2020/12/23 01:40:33;;;;;;;10.80;1.35;;;;;;;5.28;83.86;100307.91;5036372;28;20136;-79
2020/12/23 01:43:00;;;;;;;6.00;0.82;;;;;;;5.28;84.23;100318.91;5054577;28;20037;-79
2020/12/23 01:45:26;;;;;;;3.58;1.65;;;;;;;5.27;84.07;100306.28;5053819;28;20045;-79
2020/12/23 01:47:56;;;;;;;7.07;1.35;;;;;;;5.23;84.02;100305.31;5036563;28;20555;-79
2020/12/23 01:50:22;;;;;;;3.50;0.60;;;;;;;5.21;83.92;100302.09;5036375;28;20494;-78
2020/12/23 01:52:53;;;;;;;6.15;1.10;;;;;;;5.19;84.10;100298.06;5054277;28;20071;-79
2020/12/23 01:55:20;;;;;;;6.38;1.63;;;;;;;5.18;83.81;100319.22;5037171;28;20048;-78
2020/12/23 01:57:46;;;;;;;8.10;1.00;;;;;;;5.18;84.30;100330.19;5054849;28;20033;-79
2020/12/23 02:00:12;;;;;;;3.38;0.63;;;;;;;5.17;83.99;100341.47;5054478;28;20037;-78
2020/12/23 02:02:42;;;;;;;4.55;0.90;;;;;;;5.15;84.28;100344.53;5053329;28;20099;-78
2020/12/23 02:05:09;;;;;;;2.47;0.93;;;;;;;5.12;83.99;100339.69;5054075;28;20048;-80
2020/12/23 02:07:35;;;;;;;4.60;0.70;;;;;;;5.11;84.06;100345.50;5054248;28;20120;-79
2020/12/23 02:10:06;;;;;;;3.85;0.50;;;;;;;5.05;83.93;100333.84;5053773;28;20049;-79
2020/12/23 02:12:33;;;;;;;3.38;1.95;;;;;;;5.03;83.96;100341.56;5054162;28;20037;-79
2020/12/23 02:15:13;;;;;;;5.03;1.23;;;;;;;4.98;84.07;100330.75;5040640;28;20107;-79
2020/12/23 02:17:40;;;;;;;6.35;0.57;;;;;;;4.99;83.86;100337.06;5041871;28;20068;-80
2020/12/23 02:20:08;;;;;;;5.43;2.10;;;;;;;4.97;84.22;100325.59;5053661;28;20068;-79
2020/12/23 02:22:39;;;;;;;6.95;0.82;;;;;;;4.95;84.36;100331.38;5051258;28;20042;-79
2020/12/23 02:25:07;;;;;;;4.53;1.05;;;;;;;4.97;84.01;100328.34;5052280;28;20037;-79
2020/12/23 02:27:34;;;;;;;6.28;0.90;;;;;;;4.96;84.28;100335.75;5035802;28;20083;-79
2020/12/23 02:30:01;;;;;;;4.57;1.15;;;;;;;4.97;84.52;100337.38;5053374;28;20448;-78
2020/12/23 02:32:27;;;;;;;5.68;0.93;;;;;;;4.98;84.57;100330.75;5053467;28;20076;-79
2020/12/23 02:34:54;;;;;;;2.53;1.02;;;;;;;5.00;85.04;100344.16;5054010;28;20067;-80
2020/12/23 02:37:21;;;;;;;10.98;1.80;;;;;;;5.00;84.76;100330.44;5052403;28;20116;-79
2020/12/23 02:39:50;;;;;;;8.80;2.00;;;;;;;4.98;85.02;100340.94;5054357;28;20544;-80
2020/12/23 02:42:18;;;;;;;11.57;1.40;;;;;;;5.00;85.32;100338.69;5037524;28;20464;-79
2020/12/23 02:44:45;;;;;;;11.88;1.63;;;;;;;5.00;85.35;100339.50;5053349;28;20519;-81
2020/12/23 02:47:13;;;;;;;7.20;1.60;;;;;;;5.00;85.44;100328.53;5053861;28;20047;-79
2020/12/23 02:49:41;;;;;;;5.93;1.52;;;;;;;4.96;85.49;100319.28;5035603;28;20036;-80
2020/12/23 02:52:08;;;;;;;5.80;1.33;;;;;;;4.97;85.62;100318.19;5052297;28;20462;-79
2020/12/23 02:54:35;;;;;;;4.80;1.13;;;;;;;4.96;85.73;100316.56;5035194;28;20071;-81
2020/12/23 02:57:03;;;;;;;4.95;0.95;;;;;;;4.93;86.13;100297.97;5053681;28;20124;-79
2020/12/23 02:59:29;;;;;;;5.07;0.90;;;;;;;4.91;85.94;100286.53;5052358;28;20033;-78
2020/12/23 03:01:56;;;;;;;7.97;1.30;;;;;;;4.91;85.78;100281.03;5051833;28;20124;-79
2020/12/23 03:04:22;;;;;;;5.22;1.00;;;;;;;4.89;86.02;100288.78;5053796;28;20041;-79
2020/12/23 03:06:48;;;;;;;4.63;1.23;;;;;;;4.88;86.16;100284.41;5053095;28;20068;-80
2020/12/23 03:09:14;;;;;;;11.15;1.42;;;;;;;4.89;86.21;100289.59;5052629;28;20083;-80
2020/12/23 03:11:41;;;;;;;5.22;1.17;;;;;;;4.88;86.44;100298.13;5052344;28;20542;-80
2020/12/23 03:14:08;;;;;;;3.65;1.05;;;;;;;4.87;86.48;100286.34;5052824;28;20084;-79
2020/12/23 03:16:35;;;;;;;5.43;1.05;;;;;;;4.87;85.97;100280.88;5035323;28;20072;-80
2020/12/23 03:19:03;;;;;;;9.48;1.45;;;;;;;4.88;86.27;100281.69;5052755;28;20033;-79
2020/12/23 03:21:30;;;;;;;7.05;1.42;;;;;;;4.86;86.49;100271.03;5052454;28;20071;-79
2020/12/23 03:23:56;;;;;;;3.67;1.33;;;;;;;4.85;86.83;100263.13;5052147;28;20095;-78
2020/12/23 03:26:22;;;;;;;5.68;1.35;;;;;;;4.87;86.61;100280.88;5052646;28;20127;-79
2020/12/23 03:28:48;;;;;;;8.52;1.25;;;;;;;4.90;86.59;100279.41;5052951;28;20045;-79
2020/12/23 03:31:16;;;;;;;4.88;1.10;;;;;;;4.92;86.71;100285.41;5051339;28;20041;-79
2020/12/23 03:33:42;;;;;;;3.10;0.60;;;;;;;4.91;86.47;100281.03;5052626;28;20065;-78
2020/12/23 03:36:09;;;;;;;7.07;1.05;;;;;;;4.87;86.19;100277.34;5052227;28;20060;-79
2020/12/23 03:38:36;;;;;;;4.40;1.95;;;;;;;4.84;86.19;100281.50;5035886;28;20041;-78
2020/12/23 03:41:02;;;;;;;5.15;0.80;;;;;;;4.82;86.34;100274.72;5034717;28;20099;-79
2020/12/23 03:43:30;;;;;;;8.82;1.80;;;;;;;4.82;86.12;100271.97;5052626;28;20033;-79
2020/12/23 03:45:56;;;;;;;10.40;3.30;;;;;;;4.81;86.13;100276.69;5051190;28;20561;-78
2020/12/23 03:48:22;;;;;;;5.07;1.08;;;;;;;4.83;86.24;100284.56;5052142;28;20083;-79
2020/12/23 03:50:50;;;;;;;3.80;0.98;;;;;;;4.83;86.19;100279.09;5034672;28;20037;-78
2020/12/23 03:53:16;;;;;;;2.42;0.70;;;;;;;4.81;86.28;100293.13;5051168;28;20124;-79
2020/12/23 03:55:42;;;;;;;3.03;0.50;;;;;;;4.80;86.35;100283.28;5052499;28;20083;-79
2020/12/23 03:58:09;;;;;;;9.52;0.80;;;;;;;4.80;86.32;100290.69;5041289;28;20433;-79
2020/12/23 04:00:35;;;;;;;8.45;1.73;;;;;;;4.79;86.42;100283.59;5052023;28;20095;-78
2020/12/23 04:03:02;;;;;;;9.23;0.82;;;;;;;4.76;86.52;100273.25;5034733;28;20087;-79
2020/12/23 04:05:37;;;;;;;5.30;1.02;;;;;;;4.75;86.42;100277.13;5052580;28;20045;-77
2020/12/23 04:08:05;;;;;;;3.90;0.65;;;;;;;4.73;86.49;100276.63;5051580;28;20040;-79
2020/12/23 04:10:32;;;;;;;5.82;1.88;;;;;;;4.73;86.15;100271.16;5052015;28;20042;-79
2020/12/23 04:12:59;;;;;;;4.90;0.93;;;;;;;4.72;86.45;100272.28;5036019;28;20056;-79
2020/12/23 04:15:26;;;;;;;4.75;0.57;;;;;;;4.72;86.34;100270.34;5035183;28;20041;-79
2020/12/23 04:17:54;;;;;;;6.68;1.70;;;;;;;4.71;86.16;100278.91;5052246;28;20094;-78
2020/12/23 04:20:20;;;;;;;5.97;1.88;;;;;;;4.71;86.29;100267.94;5051330;28;20037;-78
2020/12/23 04:22:47;;;;;;;6.50;0.77;;;;;;;4.71;86.42;100267.94;5051949;28;20041;-78
2020/12/23 04:25:13;;;;;;;3.65;0.60;;;;;;;4.70;86.47;100258.06;5052186;28;20448;-79
2020/12/23 04:27:39;;;;;;;3.47;0.75;;;;;;;4.70;85.99;100236.97;5052604;28;20083;-79
2020/12/23 04:30:08;;;;;;;3.38;0.60;;;;;;;4.70;86.66;100241.63;5034035;28;20037;-79
2020/12/23 04:32:35;;;;;;;5.57;1.30;;;;;;;4.71;86.65;100255.00;5051200;28;20429;-79
2020/12/23 04:35:03;;;;;;;7.05;0.75;;;;;;;4.71;86.49;100265.19;5034460;28;20127;-79
2020/12/23 04:37:34;;;;;;;2.85;0.68;;;;;;;4.72;86.63;100275.81;5051917;28;20460;-79
2020/12/23 04:40:03;;;;;;;7.13;0.73;;;;;;;4.74;86.67;100272.75;5053466;28;20091;-79
2020/12/23 04:42:30;;;;;;;5.43;1.00;;;;;;;4.71;86.72;100274.19;5067740;28;20436;-77
2020/12/23 04:44:56;;;;;;;8.55;0.93;;;;;;;4.70;86.91;100263.56;5043150;28;20037;-78
2020/12/23 04:47:25;;;;;;;2.65;0.60;;;;;;;4.71;87.01;100265.19;5054989;28;20128;-80
2020/12/23 04:49:57;;;;;;;11.75;1.42;;;;;;;4.70;87.03;100263.56;5054817;28;20115;-78
2020/12/23 04:52:34;;;;;;;5.55;1.05;;;;;;;4.69;87.45;100261.94;5055219;28;20528;-79
2020/12/23 04:55:04;;;;;;;4.60;0.70;;;;;;;4.68;87.30;100272.13;5038090;28;20068;-79
2020/12/23 04:57:31;;;;;;;3.75;0.50;;;;;;;4.67;86.96;100281.47;5020980;28;20045;-80
2020/12/23 04:59:58;;;;;;;3.33;0.60;;;;;;;4.67;86.88;100275.97;5053623;28;20060;-79
2020/12/23 05:02:26;;;;;;;6.00;1.30;;;;;;;4.66;86.84;100274.34;5053439;28;20041;-79
2020/12/23 05:04:52;;;;;;;5.32;0.85;;;;;;;4.66;87.28;100273.56;5053781;28;20064;-78
2020/12/23 05:07:20;;;;;;;4.95;0.85;;;;;;;4.64;87.16;100264.81;5055337;28;20091;-78
2020/12/23 05:09:48;;;;;;;3.80;0.80;;;;;;;4.65;87.07;100260.97;5035549;28;20489;-79
2020/12/23 05:12:17;;;;;;;3.45;0.68;;;;;;;4.62;87.29;100256.13;5055189;28;20452;-79
2020/12/23 05:14:43;;;;;;;5.10;0.70;;;;;;;4.62;87.29;100239.66;5054728;28;20061;-80
2020/12/23 05:17:10;;;;;;;3.28;1.13;;;;;;;4.61;87.49;100249.00;5055055;28;20119;-80
2020/12/23 05:19:40;;;;;;;7.28;1.35;;;;;;;4.59;87.41;100235.63;5037041;28;20052;-80
2020/12/23 05:22:07;;;;;;;8.00;0.82;;;;;;;4.59;87.52;100240.28;5033904;28;20033;-80
2020/12/23 05:24:37;;;;;;;1.50;0.40;;;;;;;4.57;87.33;100240.63;5033980;28;20037;-78
2020/12/23 05:27:05;;;;;;;7.68;0.95;;;;;;;4.55;86.96;100240.16;5054781;28;20076;-78
2020/12/23 05:29:32;;;;;;;4.07;0.57;;;;;;;4.54;87.28;100251.41;5036693;28;20044;-79
2020/12/23 05:32:01;;;;;;;3.90;0.50;;;;;;;4.53;87.29;100247.03;5054841;28;20490;-78
2020/12/23 05:34:32;;;;;;;1.77;0.40;;;;;;;4.50;87.41;100251.22;5054493;28;20051;-79
2020/12/23 05:37:00;;;;;;;3.35;0.60;;;;;;;4.47;87.57;100242.84;5036517;28;20076;-78
2020/12/23 05:39:29;;;;;;;6.82;0.60;;;;;;;4.46;87.61;100246.69;5036523;28;20444;-79
2020/12/23 05:41:56;;;;;;;3.50;0.82;;;;;;;4.47;87.33;100245.59;5062863;28;20112;-79
2020/12/23 05:44:22;;;;;;;1.73;0.50;;;;;;;4.45;87.49;100243.16;5057147;28;20488;-79
2020/12/23 05:46:50;;;;;;;6.13;0.68;;;;;;;4.48;87.04;100241.69;5053448;28;20057;-79
2020/12/23 05:49:18;;;;;;;5.32;0.47;;;;;;;4.49;87.48;100246.88;5036864;28;20047;-79
2020/12/23 05:51:45;;;;;;;6.30;0.60;;;;;;;4.48;87.26;100245.25;5053299;28;20393;-79
2020/12/23 05:54:12;;;;;;;4.80;0.80;;;;;;;4.49;87.62;100232.38;5053585;28;20048;-79
2020/12/23 05:56:40;;;;;;;3.35;0.50;;;;;;;4.52;87.25;100242.69;5037137;28;20111;-78
2020/12/23 05:59:06;;;;;;;2.60;1.48;;;;;;;4.51;87.34;100233.66;5054155;28;20124;-80
2020/12/23 06:01:36;;;;;;;2.65;0.73;;;;;;;4.55;87.62;100242.06;5036160;28;20041;-79
2020/12/23 06:04:07;;;;;;;5.97;1.50;;;;;;;4.55;87.41;100236.59;5054746;28;20462;-79
2020/12/23 06:06:55;;;;;;;6.40;0.88;;;;;;;4.55;87.16;100222.88;5053093;28;20048;-79
2020/12/23 06:09:30;;;;;;;5.25;0.80;;;;;;;4.55;87.02;100228.38;5054392;28;20061;-79
2020/12/23 06:12:24;;;;;;;9.40;0.93;;;;;;;4.53;86.99;100244.31;5052908;28;20065;-79
2020/12/23 06:14:56;;;;;;;2.10;0.70;;;;;;;4.50;87.00;100226.56;5054532;28;20120;-79
2020/12/23 06:17:24;;;;;;;2.95;0.47;;;;;;;4.52;86.85;100226.25;5052552;28;20041;-79
2020/12/23 06:19:54;;;;;;;5.10;0.85;;;;;;;4.52;86.89;100234.47;5053832;28;20075;-79
2020/12/23 06:22:24;;;;;;;8.52;1.17;;;;;;;4.54;87.15;100237.69;5053296;28;20518;-79
2020/12/23 06:24:50;;;;;;;11.27;1.45;;;;;;;4.53;86.97;100241.56;5036307;28;20117;-80
2020/12/23 06:27:17;;;;;;;5.15;0.70;;;;;;;4.53;86.96;100234.16;5035859;28;20433;-79
2020/12/23 06:29:45;;;;;;;6.05;0.68;;;;;;;4.53;87.14;100230.59;5052924;28;20095;-79
2020/12/23 06:32:20;;;;;;;12.45;1.98;;;;;;;4.52;87.00;100234.47;5054068;28;20432;-79
2020/12/23 06:34:57;;;;;;;2.65;0.50;;;;;;;4.51;86.92;100235.59;5053631;28;20441;-79
2020/12/23 06:37:24;;;;;;;2.65;0.57;;;;;;;4.48;86.72;100226.06;5031220;28;20123;-79
2020/12/23 06:39:52;;;;;;;4.30;0.50;;;;;;;4.45;87.22;100240.41;5053145;28;20121;-79
2020/12/23 06:42:21;;;;;;;6.32;1.20;;;;;;;4.46;87.10;100228.34;5061155;28;20123;-80
2020/12/23 06:44:50;;;;;;;3.13;0.70;;;;;;;4.48;86.83;100234.28;5053894;28;20037;-79
2020/12/23 06:47:21;;;;;;;4.32;0.60;;;;;;;4.48;86.94;100237.03;5053548;28;20135;-79
2020/12/23 06:50:00;;;;;;;3.40;0.52;;;;;;;4.48;86.92;100228.00;5036263;28;20111;-80
2020/12/23 06:52:28;;;;;;;3.42;0.90;;;;;;;4.49;87.27;100229.63;5052381;28;20041;-79
2020/12/23 06:55:04;;;;;;;4.50;0.65;;;;;;;4.52;87.41;100234.47;5053120;28;20107;-80
2020/12/23 07:00:06;;;;;;;9.77;1.42;;;;;;;4.57;87.43;100240.63;5052890;28;20045;-79
2020/12/23 07:02:55;;;;;;;9.15;0.95;;;;;;;4.57;87.55;100234.31;5034751;28;20091;-79
2020/12/23 07:05:21;;;;;;;6.88;0.50;;;;;;;4.60;87.39;100236.44;5059836;28;20558;-79
2020/12/23 07:07:53;;;;;;;3.38;1.42;;;;;;;4.60;87.55;100228.22;5018586;28;20111;-80
2020/12/23 07:10:20;;;;;;;5.05;0.75;;;;;;;4.61;87.32;100221.59;5053058;28;20056;-79
2020/12/23 07:13:13;;;;;;;4.15;0.85;;;;;;;4.60;87.59;100217.25;5052632;28;20061;-80
2020/12/23 07:15:51;;;;;;;2.88;0.88;;;;;;;4.61;87.08;100232.56;5035657;28;20037;-79
2020/12/23 07:18:23;;;;;;;4.57;0.95;;;;;;;4.64;87.11;100231.91;5035136;28;20608;-78
2020/12/23 07:20:58;;;;;;;5.15;0.90;;;;;;;4.65;87.38;100222.59;5052136;28;20112;-79
2020/12/23 07:23:26;;;;;;;5.05;0.70;;;;;;;4.65;87.04;100223.41;5052187;28;20048;-79
2020/12/23 07:25:55;;;;;;;9.57;1.65;;;;;;;4.67;87.24;100217.59;5034503;28;20084;-79
2020/12/23 07:28:41;;;;;;;8.27;0.77;;;;;;;4.67;87.33;100218.41;5034699;28;20401;-79
2020/12/23 07:31:09;;;;;;;2.53;0.60;;;;;;;4.69;87.06;100221.63;5052970;28;20123;-80
2020/12/23 07:33:39;;;;;;;9.43;1.77;;;;;;;4.70;87.43;100214.22;5035304;28;20032;-80
2020/12/23 07:36:07;;;;;;;3.85;1.27;;;;;;;4.71;87.25;100224.06;5034216;28;20041;-79
2020/12/23 07:38:36;;;;;;;4.75;0.93;;;;;;;4.71;87.20;100227.59;5052215;28;20470;-79
2020/12/23 07:41:02;;;;;;;8.13;1.38;;;;;;;4.72;87.27;100211.94;5052921;28;20170;-80
2020/12/23 07:43:29;;;;;;;11.75;3.05;;;;;;;4.73;87.20;100214.38;5068475;28;20090;-79
2020/12/23 07:45:56;;;;;;;11.75;1.10;;;;;;;4.76;86.99;100226.66;5052198;28;20053;-79
2020/12/23 07:48:28;;;;;;;6.15;1.10;;;;;;;4.77;87.14;100226.31;5034799;28;20084;-79
2020/12/23 07:50:57;;;;;;;7.47;0.80;;;;;;;4.81;87.36;100227.31;5051804;28;20083;-80
2020/12/23 07:53:29;;;;;;;7.72;1.20;;;;;;;4.83;87.07;100235.19;5034675;28;20080;-79
2020/12/23 07:56:05;;;;;;;6.30;1.08;;;;;;;4.83;87.16;100237.94;5042329;28;20103;-79
2020/12/23 07:58:34;;;;;;;13.48;1.40;;;;;;;4.85;86.95;100232.94;5052392;28;20049;-78
2020/12/23 08:01:00;;;;;;;7.15;1.10;;;;;;;4.87;86.82;100236.19;5035010;28;20045;-79
2020/12/23 08:03:31;;;;;;;5.45;1.60;;;;;;;4.87;86.91;100236.19;5052089;28;20131;-79
2020/12/23 08:06:07;;;;;;;9.93;1.33;;;;;;;4.87;86.86;100236.19;5052402;28;20378;-78
2020/12/23 08:08:35;;;;;;;6.78;0.90;;;;;;;4.88;87.02;100237.78;5051870;28;20047;-80
2020/12/23 08:11:15;;;;;;;6.05;0.90;;;;;;;4.87;86.63;100236.19;5027795;28;20091;-79
2020/12/23 08:13:42;;;;;;;13.48;2.75;;;;;;;4.88;86.61;100249.59;5017620;28;20135;-79
2020/12/23 08:16:15;;;;;;;5.55;0.95;;;;;;;4.88;86.80;100254.25;5055788;28;20030;-79
2020/12/23 08:18:43;;;;;;;4.43;0.77;;;;;;;4.87;86.52;100253.44;5056526;28;20544;-79
2020/12/23 08:21:11;;;;;;;7.05;1.08;;;;;;;4.90;86.38;100262.97;5055927;28;20037;-81
2020/12/23 08:23:38;;;;;;;5.25;1.85;;;;;;;4.92;86.58;100261.50;5031534;28;20127;-80
2020/12/23 08:26:06;;;;;;;7.93;0.60;;;;;;;4.94;86.60;100269.44;5038945;28;20049;-80
2020/12/23 08:28:37;;;;;;;10.30;1.25;;;;;;;4.95;86.46;100270.25;5037642;28;20049;-80
2020/12/23 08:31:04;;;;;;;8.20;1.00;;;;;;;4.97;86.32;100273.47;5054830;28;20449;-79
2020/12/23 08:33:33;;;;;;;1.45;0.52;;;;;;;4.98;86.30;100275.88;5045456;28;20044;-80
2020/12/23 08:36:02;;;;;;;5.07;0.90;;;;;;;5.00;85.98;100292.88;5045183;28;20049;-78
2020/12/23 08:38:37;;;;;;;6.05;1.00;;;;;;;5.02;86.00;100285.13;5051007;28;20040;-80
2020/12/23 08:41:20;;;;;;;6.90;1.23;;;;;;;5.02;86.16;100285.13;5053610;28;20037;-80
2020/12/23 08:43:50;;;;;;;4.30;0.73;;;;;;;5.02;86.28;100296.09;5036242;28;20115;-79
2020/12/23 08:46:23;;;;;;;2.85;1.13;;;;;;;5.07;86.07;100281.41;5054649;28;20057;-79
2020/12/23 08:48:53;;;;;;;4.25;0.98;;;;;;;5.09;85.74;100290.94;5052999;28;20091;-81
2020/12/23 08:51:22;;;;;;;2.78;0.98;;;;;;;5.09;85.70;100282.69;5053912;28;20091;-81
2020/12/23 08:53:52;;;;;;;8.00;1.45;;;;;;;5.11;85.50;100293.38;5054553;28;20067;-79
2020/12/23 08:56:31;;;;;;;5.75;0.80;;;;;;;5.11;85.10;100296.13;5053787;28;20037;-79
2020/12/23 08:59:08;;;;;;;9.30;1.27;;;;;;;5.12;84.89;100289.47;5052150;28;20033;-81
2020/12/23 09:01:35;;;;;;;2.65;1.05;;;;;;;5.15;84.86;100288.84;5035901;28;20295;-78
2020/12/23 09:04:05;;;;;;;12.73;2.97;;;;;;;5.15;84.91;100284.16;5053837;28;20041;-78
2020/12/23 09:06:38;;;;;;;4.63;0.98;;;;;;;5.16;84.78;100293.22;5053220;28;20044;-78
2020/12/23 09:09:17;;;;;;;9.75;1.30;;;;;;;5.14;84.59;100293.50;5053552;28;20041;-80
2020/12/23 09:11:47;;;;;;;8.07;1.50;;;;;;;5.16;84.40;100291.28;5053552;28;20045;-83
2020/12/23 09:14:28;;;;;;;6.03;0.70;;;;;;;5.16;84.54;100294.03;5036302;28;20496;-81
2020/12/23 09:17:07;;;;;;;8.32;1.50;;;;;;;5.17;84.80;100300.28;5035468;28;20112;-83
2020/12/23 09:19:59;;;;;;;2.55;0.63;;;;;;;5.18;85.04;100304.66;5019829;28;20040;-85
2020/12/23 09:22:40;;;;;;;2.38;0.85;;;;;;;5.17;84.80;100301.13;5030584;28;20037;-83
2020/12/23 09:25:29;;;;;;;2.97;0.52;;;;;;;5.18;84.70;100310.16;5034746;28;20068;-79
2020/12/23 09:28:08;;;;;;;2.60;0.80;;;;;;;5.21;84.87;100323.25;5050447;28;20037;-78
2020/12/23 09:30:42;;;;;;;4.35;0.65;;;;;;;5.21;84.74;100313.09;5051098;28;20069;-78
2020/12/23 09:33:10;;;;;;;4.50;1.10;;;;;;;5.23;84.78;100321.78;5048654;28;20246;-79
2020/12/23 09:35:40;;;;;;;3.63;0.85;;;;;;;5.23;84.14;100320.97;5050648;28;20049;-78
2020/12/23 09:38:18;;;;;;;4.40;0.80;;;;;;;5.25;84.04;100338.75;5049354;28;20033;-77
2020/12/23 09:40:48;;;;;;;2.70;1.13;;;;;;;5.26;84.55;100337.63;5047957;28;20072;-78
2020/12/23 09:43:18;;;;;;;2.80;0.73;;;;;;;5.27;84.21;100333.72;5052423;28;20048;-78
2020/12/23 09:45:46;;;;;;;4.70;1.42;;;;;;;5.27;84.31;100341.97;5018694;28;20148;-78
2020/12/23 09:48:14;;;;;;;7.00;1.15;;;;;;;5.29;84.31;100336.19;5051854;28;20445;-78
2020/12/23 09:50:42;;;;;;;5.18;1.17;;;;;;;5.30;84.37;100348.75;5052714;28;20056;-76
2020/12/23 09:53:10;;;;;;;11.30;2.53;;;;;;;5.30;84.39;100338.59;5052575;28;20087;-78
2020/12/23 09:55:44;;;;;;;6.03;0.98;;;;;;;5.32;84.41;100347.31;5051516;28;20128;-78
2020/12/23 09:58:10;;;;;;;7.97;1.20;;;;;;;5.31;84.54;100345.72;5053206;28;20130;-78
2020/12/23 10:00:38;;;;;;;8.40;1.52;;;;;;;5.32;84.88;100352.78;5052360;28;20033;-79
2020/12/23 10:03:05;;;;;;;3.38;1.25;;;;;;;5.31;85.02;100356.69;5041668;28;20048;-79
2020/12/23 10:05:32;;;;;;;9.05;1.38;;;;;;;5.31;85.12;100353.94;5032545;28;20068;-79
2020/12/23 10:07:59;;;;;;;6.97;1.23;;;;;;;5.32;85.14;100355.53;5031729;28;20548;-78
2020/12/23 10:10:25;;;;;;;3.97;1.10;;;;;;;5.33;85.40;100359.09;5049865;28;20148;-78
2020/12/23 10:12:52;;;;;;;5.25;1.10;;;;;;;5.31;85.55;100356.69;5050929;28;20481;-77
2020/12/23 10:15:18;;;;;;;6.38;0.98;;;;;;;5.29;85.30;100358.94;5051191;28;20075;-77
2020/12/23 10:17:45;;;;;;;3.88;1.17;;;;;;;5.27;85.40;100350.19;5051010;28;20044;-79
2020/12/23 10:20:12;;;;;;;3.45;0.80;;;;;;;5.23;85.83;100362.16;5051127;28;20127;-78
2020/12/23 10:22:38;;;;;;;4.90;1.55;;;;;;;5.19;85.51;100370.19;5034024;28;20076;-78
2020/12/23 10:25:06;;;;;;;6.13;0.75;;;;;;;5.18;85.72;100379.56;5050603;28;20123;-78
2020/12/23 10:27:36;;;;;;;3.88;0.98;;;;;;;5.18;85.56;100357.63;5033190;28;20088;-79
2020/12/23 10:30:06;;;;;;;6.38;1.05;;;;;;;5.19;85.66;100363.94;5051863;28;20041;-78
2020/12/23 10:32:32;;;;;;;8.02;1.52;;;;;;;5.20;85.63;100374.56;5049921;28;20045;-75
2020/12/23 10:34:58;;;;;;;8.75;1.42;;;;;;;5.20;85.78;100360.84;5036438;28;20049;-80
2020/12/23 10:37:25;;;;;;;4.78;0.93;;;;;;;5.22;85.63;100383.28;5043566;28;20124;-79
2020/12/23 10:39:56;;;;;;;4.65;0.70;;;;;;;5.23;85.38;100382.16;5050622;28;20041;-81
2020/12/23 10:42:23;;;;;;;4.60;1.50;;;;;;;5.25;85.49;100379.91;5055147;28;20065;-82
2020/12/23 10:44:49;;;;;;;12.50;2.40;;;;;;;5.27;85.38;100377.66;5021111;28;20147;-84
2020/12/23 10:47:29;;;;;;;5.30;0.80;;;;;;;5.28;85.02;100387.50;5033633;28;20057;-81
2020/12/23 10:50:01;;;;;;;2.85;0.70;;;;;;;5.30;84.71;100390.75;5017753;28;20115;-81
2020/12/23 10:52:27;;;;;;;3.78;0.80;;;;;;;5.32;84.28;100385.72;5017199;28;20135;-79
2020/12/23 10:54:55;;;;;;;4.90;1.05;;;;;;;5.34;84.90;100407.38;5049350;28;20552;-81
2020/12/23 10:57:21;;;;;;;6.03;1.25;;;;;;;5.33;84.59;100387.34;5032974;28;20067;-81
2020/12/23 10:59:48;;;;;;;4.80;1.40;;;;;;;5.33;84.59;100394.78;5049401;28;20473;-78
2020/12/23 11:02:14;;;;;;;4.63;0.68;;;;;;;5.32;84.92;100395.94;5032178;28;20244;-78
2020/12/23 11:04:40;;;;;;;3.85;0.63;;;;;;;5.32;84.38;100406.91;5050809;28;20072;-78
2020/12/23 11:07:07;;;;;;;5.35;0.85;;;;;;;5.31;84.48;100400.59;5051059;28;20573;-79
2020/12/23 11:09:33;;;;;;;1.55;0.77;;;;;;;5.29;84.56;100405.59;5050373;28;20033;-78
2020/12/23 11:11:59;;;;;;;11.43;1.33;;;;;;;5.25;84.67;100390.88;5032822;28;20128;-81
2020/12/23 11:14:25;;;;;;;3.58;1.45;;;;;;;5.26;85.07;100414.47;5021406;28;20037;-78
2020/12/23 11:16:52;;;;;;;7.45;1.05;;;;;;;5.29;84.86;100402.06;5024184;28;20083;-76
2020/12/23 11:19:21;;;;;;;4.97;0.85;;;;;;;5.28;84.65;100403.97;5048547;28;20444;-81
2020/12/23 11:21:47;;;;;;;6.53;1.58;;;;;;;5.28;84.57;100401.22;5042825;28;20446;-77
2020/12/23 11:24:14;;;;;;;4.30;0.95;;;;;;;5.30;84.59;100395.41;5048816;28;20041;-77
2020/12/23 11:26:40;;;;;;;4.40;0.93;;;;;;;5.29;84.71;100408.34;5049578;28;20037;-76
2020/12/23 11:29:09;;;;;;;4.22;0.77;;;;;;;5.30;84.94;100409.94;5047492;28;20371;-76
2020/12/23 11:31:36;;;;;;;5.93;1.08;;;;;;;5.32;84.52;100401.41;5032489;28;20073;-78
2020/12/23 11:34:02;;;;;;;4.90;0.75;;;;;;;5.32;84.64;100402.19;5048669;28;20115;-77
2020/12/23 11:36:29;;;;;;;5.40;0.93;;;;;;;5.32;84.37;100399.44;5049260;28;20091;-77
2020/12/23 11:38:58;;;;;;;3.85;0.77;;;;;;;5.34;84.65;100382.69;5050082;28;20048;-77
2020/12/23 11:41:28;;;;;;;4.90;1.77;;;;;;;5.34;84.19;100391.72;5050350;28;20075;-77
2020/12/23 11:43:55;;;;;;;7.85;2.47;;;;;;;5.34;84.41;100394.47;5032682;28;20116;-77